sensor_id;sensor_type;location;lat;lon;timestamp;P1;durP1;ratioP1;P2;durP2;ratioP2
20945;SDS011;10632;51.276;7.116;2023-05-07T00:00:43;3.28;;;1.67;;
20945;SDS011;10632;51.276;7.116;2023-05-07T00:03:11;3.83;;;1.70;;
20945;SDS011;10632;51.276;7.116;2023-05-07T00:05:38;4.30;;;1.60;;
20945;SDS011;10632;51.276;7.116;2023-05-07T00:08:06;2.97;;;1.40;;
20945;SDS011;10632;51.276;7.116;2023-05-07T00:10:33;4.47;;;1.52;;
20945;SDS011;10632;51.276;7.116;2023-05-07T00:13:00;4.13;;;1.48;;
20945;SDS011;10632;51.276;7.116;2023-05-07T00:15:27;3.13;;;1.58;;
20945;SDS011;10632;51.276;7.116;2023-05-07T00:17:55;3.60;;;1.45;;
20945;SDS011;10632;51.276;7.116;2023-05-07T00:20:28;3.38;;;1.70;;
20945;SDS011;10632;51.276;7.116;2023-05-07T00:22:55;5.18;;;1.60;;
20945;SDS011;10632;51.276;7.116;2023-05-07T00:25:22;5.45;;;1.50;;
20945;SDS011;10632;51.276;7.116;2023-05-07T00:27:48;3.13;;;1.38;;
20945;SDS011;10632;51.276;7.116;2023-05-07T00:30:16;2.78;;;1.50;;
20945;SDS011;10632;51.276;7.116;2023-05-07T00:32:44;6.18;;;1.52;;
20945;SDS011;10632;51.276;7.116;2023-05-07T00:35:11;3.17;;;1.40;;
20945;SDS011;10632;51.276;7.116;2023-05-07T00:37:39;3.05;;;1.30;;
20945;SDS011;10632;51.276;7.116;2023-05-07T00:40:09;2.55;;;1.33;;
20945;SDS011;10632;51.276;7.116;2023-05-07T00:42:38;2.20;;;1.30;;
20945;SDS011;10632;51.276;7.116;2023-05-07T00:45:05;2.88;;;1.33;;
20945;SDS011;10632;51.276;7.116;2023-05-07T00:47:34;3.53;;;1.48;;
20945;SDS011;10632;51.276;7.116;2023-05-07T00:50:01;2.92;;;1.33;;
20945;SDS011;10632;51.276;7.116;2023-05-07T00:52:28;3.03;;;1.33;;
20945;SDS011;10632;51.276;7.116;2023-05-07T00:54:57;4.72;;;1.20;;
20945;SDS011;10632;51.276;7.116;2023-05-07T00:57:24;4.07;;;1.30;;
20945;SDS011;10632;51.276;7.116;2023-05-07T00:59:51;2.28;;;1.30;;
20945;SDS011;10632;51.276;7.116;2023-05-07T01:02:18;3.33;;;1.40;;
20945;SDS011;10632;51.276;7.116;2023-05-07T01:04:45;3.35;;;1.17;;
20945;SDS011;10632;51.276;7.116;2023-05-07T01:07:12;3.47;;;1.50;;
20945;SDS011;10632;51.276;7.116;2023-05-07T01:09:39;2.25;;;1.15;;
20945;SDS011;10632;51.276;7.116;2023-05-07T01:12:08;2.53;;;1.20;;
20945;SDS011;10632;51.276;7.116;2023-05-07T01:14:36;2.45;;;1.20;;
20945;SDS011;10632;51.276;7.116;2023-05-07T01:17:03;2.55;;;1.20;;
20945;SDS011;10632;51.276;7.116;2023-05-07T01:19:30;2.97;;;1.25;;
20945;SDS011;10632;51.276;7.116;2023-05-07T01:21:59;2.03;;;1.10;;
20945;SDS011;10632;51.276;7.116;2023-05-07T01:24:32;3.05;;;1.20;;
20945;SDS011;10632;51.276;7.116;2023-05-07T01:26:59;2.25;;;1.10;;
20945;SDS011;10632;51.276;7.116;2023-05-07T01:29:27;2.80;;;0.95;;
20945;SDS011;10632;51.276;7.116;2023-05-07T01:31:54;3.58;;;1.33;;
20945;SDS011;10632;51.276;7.116;2023-05-07T01:34:24;2.55;;;1.10;;
20945;SDS011;10632;51.276;7.116;2023-05-07T01:36:53;2.03;;;0.90;;
20945;SDS011;10632;51.276;7.116;2023-05-07T01:39:23;3.33;;;1.27;;
20945;SDS011;10632;51.276;7.116;2023-05-07T01:41:53;3.28;;;1.25;;
20945;SDS011;10632;51.276;7.116;2023-05-07T01:44:21;3.75;;;0.98;;
20945;SDS011;10632;51.276;7.116;2023-05-07T01:46:48;2.05;;;1.00;;
20945;SDS011;10632;51.276;7.116;2023-05-07T01:49:16;3.17;;;1.15;;
20945;SDS011;10632;51.276;7.116;2023-05-07T01:51:43;2.67;;;1.00;;
20945;SDS011;10632;51.276;7.116;2023-05-07T01:54:10;2.10;;;0.90;;
20945;SDS011;10632;51.276;7.116;2023-05-07T01:56:37;1.88;;;1.00;;
20945;SDS011;10632;51.276;7.116;2023-05-07T01:59:05;2.97;;;1.10;;
20945;SDS011;10632;51.276;7.116;2023-05-07T02:01:32;2.63;;;1.08;;
20945;SDS011;10632;51.276;7.116;2023-05-07T02:04:00;2.28;;;1.08;;
20945;SDS011;10632;51.276;7.116;2023-05-07T02:06:27;2.22;;;1.17;;
20945;SDS011;10632;51.276;7.116;2023-05-07T02:08:54;2.38;;;0.90;;
20945;SDS011;10632;51.276;7.116;2023-05-07T02:11:21;2.17;;;0.93;;
20945;SDS011;10632;51.276;7.116;2023-05-07T02:13:47;2.00;;;1.00;;
20945;SDS011;10632;51.276;7.116;2023-05-07T02:16:18;2.03;;;0.85;;
20945;SDS011;10632;51.276;7.116;2023-05-07T02:18:46;1.77;;;0.93;;
20945;SDS011;10632;51.276;7.116;2023-05-07T02:21:15;1.90;;;0.98;;
20945;SDS011;10632;51.276;7.116;2023-05-07T02:23:42;2.22;;;1.00;;
20945;SDS011;10632;51.276;7.116;2023-05-07T02:26:10;5.88;;;0.95;;
20945;SDS011;10632;51.276;7.116;2023-05-07T02:28:37;2.10;;;1.00;;
20945;SDS011;10632;51.276;7.116;2023-05-07T02:31:04;2.15;;;1.10;;
20945;SDS011;10632;51.276;7.116;2023-05-07T02:33:32;1.60;;;0.90;;
20945;SDS011;10632;51.276;7.116;2023-05-07T02:36:05;2.70;;;1.00;;
20945;SDS011;10632;51.276;7.116;2023-05-07T02:38:33;1.73;;;0.90;;
20945;SDS011;10632;51.276;7.116;2023-05-07T02:41:00;2.50;;;1.00;;
20945;SDS011;10632;51.276;7.116;2023-05-07T02:43:27;2.65;;;1.30;;
20945;SDS011;10632;51.276;7.116;2023-05-07T02:46:00;1.85;;;1.00;;
20945;SDS011;10632;51.276;7.116;2023-05-07T02:48:28;2.10;;;1.10;;
20945;SDS011;10632;51.276;7.116;2023-05-07T02:50:56;2.47;;;1.10;;
20945;SDS011;10632;51.276;7.116;2023-05-07T02:53:23;2.17;;;1.00;;
20945;SDS011;10632;51.276;7.116;2023-05-07T02:55:51;2.70;;;1.17;;
20945;SDS011;10632;51.276;7.116;2023-05-07T02:58:18;2.63;;;1.10;;
20945;SDS011;10632;51.276;7.116;2023-05-07T03:00:45;3.25;;;1.00;;
20945;SDS011;10632;51.276;7.116;2023-05-07T03:03:12;2.72;;;1.30;;
20945;SDS011;10632;51.276;7.116;2023-05-07T03:05:39;2.28;;;0.90;;
20945;SDS011;10632;51.276;7.116;2023-05-07T03:08:08;3.15;;;1.00;;
20945;SDS011;10632;51.276;7.116;2023-05-07T03:10:35;4.40;;;0.98;;
20945;SDS011;10632;51.276;7.116;2023-05-07T03:13:02;1.55;;;0.98;;
20945;SDS011;10632;51.276;7.116;2023-05-07T03:15:30;2.75;;;1.17;;
20945;SDS011;10632;51.276;7.116;2023-05-07T03:17:56;4.20;;;1.15;;
20945;SDS011;10632;51.276;7.116;2023-05-07T03:20:23;2.72;;;1.00;;
20945;SDS011;10632;51.276;7.116;2023-05-07T03:22:50;2.08;;;1.08;;
20945;SDS011;10632;51.276;7.116;2023-05-07T03:25:19;4.00;;;1.13;;
20945;SDS011;10632;51.276;7.116;2023-05-07T03:27:45;2.03;;;1.00;;
20945;SDS011;10632;51.276;7.116;2023-05-07T03:30:12;2.80;;;0.90;;
20945;SDS011;10632;51.276;7.116;2023-05-07T03:32:39;2.00;;;1.08;;
20945;SDS011;10632;51.276;7.116;2023-05-07T03:35:06;3.17;;;1.15;;
20945;SDS011;10632;51.276;7.116;2023-05-07T03:37:33;1.85;;;1.00;;
20945;SDS011;10632;51.276;7.116;2023-05-07T03:40:00;3.20;;;1.33;;
20945;SDS011;10632;51.276;7.116;2023-05-07T03:42:28;2.20;;;0.85;;
20945;SDS011;10632;51.276;7.116;2023-05-07T03:44:58;3.63;;;1.30;;
20945;SDS011;10632;51.276;7.116;2023-05-07T03:50:01;2.63;;;1.30;;
20945;SDS011;10632;51.276;7.116;2023-05-07T03:52:28;2.30;;;1.00;;
20945;SDS011;10632;51.276;7.116;2023-05-07T03:54:56;2.08;;;0.98;;
20945;SDS011;10632;51.276;7.116;2023-05-07T03:57:23;2.97;;;1.20;;
20945;SDS011;10632;51.276;7.116;2023-05-07T03:59:51;2.20;;;1.00;;
20945;SDS011;10632;51.276;7.116;2023-05-07T04:02:18;2.20;;;0.90;;
20945;SDS011;10632;51.276;7.116;2023-05-07T04:04:45;4.97;;;0.77;;
20945;SDS011;10632;51.276;7.116;2023-05-07T04:07:14;1.60;;;0.90;;
20945;SDS011;10632;51.276;7.116;2023-05-07T04:09:44;1.80;;;1.08;;
20945;SDS011;10632;51.276;7.116;2023-05-07T04:12:11;2.67;;;1.00;;
20945;SDS011;10632;51.276;7.116;2023-05-07T04:14:38;4.53;;;1.13;;
20945;SDS011;10632;51.276;7.116;2023-05-07T04:17:06;1.88;;;0.90;;
20945;SDS011;10632;51.276;7.116;2023-05-07T04:19:36;2.53;;;1.00;;
20945;SDS011;10632;51.276;7.116;2023-05-07T04:22:23;3.60;;;1.00;;
20945;SDS011;10632;51.276;7.116;2023-05-07T04:24:50;2.50;;;1.00;;
20945;SDS011;10632;51.276;7.116;2023-05-07T04:27:19;1.95;;;0.90;;
20945;SDS011;10632;51.276;7.116;2023-05-07T04:29:46;1.45;;;0.68;;
20945;SDS011;10632;51.276;7.116;2023-05-07T04:32:15;2.30;;;0.90;;
20945;SDS011;10632;51.276;7.116;2023-05-07T04:34:42;1.40;;;0.75;;
20945;SDS011;10632;51.276;7.116;2023-05-07T04:37:09;1.77;;;0.90;;
20945;SDS011;10632;51.276;7.116;2023-05-07T04:39:36;1.95;;;1.00;;
20945;SDS011;10632;51.276;7.116;2023-05-07T04:42:03;2.22;;;1.00;;
20945;SDS011;10632;51.276;7.116;2023-05-07T04:44:32;2.67;;;0.90;;
20945;SDS011;10632;51.276;7.116;2023-05-07T04:47:00;3.35;;;1.02;;
20945;SDS011;10632;51.276;7.116;2023-05-07T04:49:29;2.38;;;1.08;;
20945;SDS011;10632;51.276;7.116;2023-05-07T04:51:57;2.22;;;0.88;;
20945;SDS011;10632;51.276;7.116;2023-05-07T04:54:24;1.75;;;0.88;;
20945;SDS011;10632;51.276;7.116;2023-05-07T04:56:51;3.58;;;1.08;;
20945;SDS011;10632;51.276;7.116;2023-05-07T04:59:21;1.70;;;0.90;;
20945;SDS011;10632;51.276;7.116;2023-05-07T05:01:48;2.42;;;1.10;;
20945;SDS011;10632;51.276;7.116;2023-05-07T05:04:15;2.50;;;1.00;;
20945;SDS011;10632;51.276;7.116;2023-05-07T05:06:44;2.03;;;1.00;;
20945;SDS011;10632;51.276;7.116;2023-05-07T05:09:10;2.63;;;0.98;;
20945;SDS011;10632;51.276;7.116;2023-05-07T05:11:38;3.92;;;1.38;;
20945;SDS011;10632;51.276;7.116;2023-05-07T05:14:05;2.53;;;1.10;;
20945;SDS011;10632;51.276;7.116;2023-05-07T05:16:32;1.65;;;1.05;;
20945;SDS011;10632;51.276;7.116;2023-05-07T05:18:59;5.20;;;0.95;;
20945;SDS011;10632;51.276;7.116;2023-05-07T05:21:27;4.25;;;1.00;;
20945;SDS011;10632;51.276;7.116;2023-05-07T05:23:56;2.70;;;1.10;;
20945;SDS011;10632;51.276;7.116;2023-05-07T05:26:27;2.22;;;1.00;;
20945;SDS011;10632;51.276;7.116;2023-05-07T05:28:54;2.40;;;1.08;;
20945;SDS011;10632;51.276;7.116;2023-05-07T05:31:22;2.10;;;1.10;;
20945;SDS011;10632;51.276;7.116;2023-05-07T05:33:48;1.83;;;0.88;;
20945;SDS011;10632;51.276;7.116;2023-05-07T05:36:16;2.63;;;1.30;;
20945;SDS011;10632;51.276;7.116;2023-05-07T05:38:43;3.33;;;1.20;;
20945;SDS011;10632;51.276;7.116;2023-05-07T05:41:12;2.10;;;1.08;;
20945;SDS011;10632;51.276;7.116;2023-05-07T05:43:39;2.75;;;1.13;;
20945;SDS011;10632;51.276;7.116;2023-05-07T05:46:06;5.00;;;1.13;;
20945;SDS011;10632;51.276;7.116;2023-05-07T05:48:36;5.20;;;1.10;;
20945;SDS011;10632;51.276;7.116;2023-05-07T05:51:04;3.78;;;1.20;;
20945;SDS011;10632;51.276;7.116;2023-05-07T05:53:32;1.85;;;0.90;;
20945;SDS011;10632;51.276;7.116;2023-05-07T05:55:59;1.80;;;0.95;;
20945;SDS011;10632;51.276;7.116;2023-05-07T05:58:28;2.08;;;1.02;;
20945;SDS011;10632;51.276;7.116;2023-05-07T06:00:57;1.83;;;0.90;;
20945;SDS011;10632;51.276;7.116;2023-05-07T06:03:27;3.55;;;1.13;;
20945;SDS011;10632;51.276;7.116;2023-05-07T06:05:57;2.00;;;1.02;;
20945;SDS011;10632;51.276;7.116;2023-05-07T06:08:25;2.28;;;1.15;;
20945;SDS011;10632;51.276;7.116;2023-05-07T06:10:52;2.33;;;1.13;;
20945;SDS011;10632;51.276;7.116;2023-05-07T06:13:20;2.00;;;1.00;;
20945;SDS011;10632;51.276;7.116;2023-05-07T06:15:49;2.95;;;0.98;;
20945;SDS011;10632;51.276;7.116;2023-05-07T06:18:16;2.20;;;1.10;;
20945;SDS011;10632;51.276;7.116;2023-05-07T06:20:43;2.35;;;1.10;;
20945;SDS011;10632;51.276;7.116;2023-05-07T06:23:13;2.53;;;1.10;;
20945;SDS011;10632;51.276;7.116;2023-05-07T06:25:40;3.28;;;1.00;;
20945;SDS011;10632;51.276;7.116;2023-05-07T06:28:07;3.42;;;1.00;;
20945;SDS011;10632;51.276;7.116;2023-05-07T06:30:36;3.40;;;1.10;;
20945;SDS011;10632;51.276;7.116;2023-05-07T06:33:04;2.30;;;1.13;;
20945;SDS011;10632;51.276;7.116;2023-05-07T06:35:31;2.15;;;1.02;;
20945;SDS011;10632;51.276;7.116;2023-05-07T06:37:58;2.05;;;1.10;;
20945;SDS011;10632;51.276;7.116;2023-05-07T06:40:26;2.58;;;1.10;;
20945;SDS011;10632;51.276;7.116;2023-05-07T06:42:53;3.03;;;1.10;;
20945;SDS011;10632;51.276;7.116;2023-05-07T06:45:20;2.22;;;1.20;;
20945;SDS011;10632;51.276;7.116;2023-05-07T06:47:47;2.33;;;0.95;;
20945;SDS011;10632;51.276;7.116;2023-05-07T06:50:15;2.75;;;1.15;;
20945;SDS011;10632;51.276;7.116;2023-05-07T06:52:42;2.83;;;1.00;;
20945;SDS011;10632;51.276;7.116;2023-05-07T06:55:10;1.73;;;1.00;;
20945;SDS011;10632;51.276;7.116;2023-05-07T06:57:39;1.98;;;1.00;;
20945;SDS011;10632;51.276;7.116;2023-05-07T07:00:08;4.40;;;1.02;;
20945;SDS011;10632;51.276;7.116;2023-05-07T07:02:36;2.00;;;1.00;;
20945;SDS011;10632;51.276;7.116;2023-05-07T07:05:03;3.00;;;0.90;;
20945;SDS011;10632;51.276;7.116;2023-05-07T07:07:35;1.92;;;1.10;;
20945;SDS011;10632;51.276;7.116;2023-05-07T07:10:02;3.70;;;1.20;;
20945;SDS011;10632;51.276;7.116;2023-05-07T07:12:29;3.00;;;1.10;;
20945;SDS011;10632;51.276;7.116;2023-05-07T07:14:56;2.90;;;1.17;;
20945;SDS011;10632;51.276;7.116;2023-05-07T07:17:24;2.38;;;1.08;;
20945;SDS011;10632;51.276;7.116;2023-05-07T07:19:51;2.97;;;1.25;;
20945;SDS011;10632;51.276;7.116;2023-05-07T07:22:18;2.40;;;0.98;;
20945;SDS011;10632;51.276;7.116;2023-05-07T07:24:46;1.48;;;0.88;;
20945;SDS011;10632;51.276;7.116;2023-05-07T07:27:13;5.07;;;1.10;;
20945;SDS011;10632;51.276;7.116;2023-05-07T07:29:40;2.42;;;1.13;;
20945;SDS011;10632;51.276;7.116;2023-05-07T07:32:07;1.90;;;0.90;;
20945;SDS011;10632;51.276;7.116;2023-05-07T07:34:34;2.22;;;1.30;;
20945;SDS011;10632;51.276;7.116;2023-05-07T07:37:01;3.30;;;1.30;;
20945;SDS011;10632;51.276;7.116;2023-05-07T07:39:31;2.15;;;1.20;;
20945;SDS011;10632;51.276;7.116;2023-05-07T07:41:59;2.42;;;1.08;;
20945;SDS011;10632;51.276;7.116;2023-05-07T07:46:53;2.05;;;1.00;;
20945;SDS011;10632;51.276;7.116;2023-05-07T07:49:20;2.40;;;1.20;;
20945;SDS011;10632;51.276;7.116;2023-05-07T07:51:47;3.22;;;1.13;;
20945;SDS011;10632;51.276;7.116;2023-05-07T07:54:14;2.60;;;1.20;;
20945;SDS011;10632;51.276;7.116;2023-05-07T07:56:41;2.35;;;1.10;;
20945;SDS011;10632;51.276;7.116;2023-05-07T07:59:09;2.58;;;1.25;;
20945;SDS011;10632;51.276;7.116;2023-05-07T08:01:36;1.83;;;0.98;;
20945;SDS011;10632;51.276;7.116;2023-05-07T08:04:03;4.15;;;1.33;;
20945;SDS011;10632;51.276;7.116;2023-05-07T08:06:31;2.03;;;1.08;;
20945;SDS011;10632;51.276;7.116;2023-05-07T08:08:58;2.55;;;1.10;;
20945;SDS011;10632;51.276;7.116;2023-05-07T08:11:25;3.55;;;1.30;;
20945;SDS011;10632;51.276;7.116;2023-05-07T08:13:57;1.88;;;1.00;;
20945;SDS011;10632;51.276;7.116;2023-05-07T08:16:25;2.55;;;1.08;;
20945;SDS011;10632;51.276;7.116;2023-05-07T08:18:53;2.00;;;1.00;;
20945;SDS011;10632;51.276;7.116;2023-05-07T08:21:20;2.90;;;1.00;;
20945;SDS011;10632;51.276;7.116;2023-05-07T08:23:47;4.50;;;1.73;;
20945;SDS011;10632;51.276;7.116;2023-05-07T08:26:14;4.80;;;1.90;;
20945;SDS011;10632;51.276;7.116;2023-05-07T08:28:41;2.70;;;1.00;;
20945;SDS011;10632;51.276;7.116;2023-05-07T08:31:07;1.88;;;1.10;;
20945;SDS011;10632;51.276;7.116;2023-05-07T08:33:38;4.00;;;1.52;;
20945;SDS011;10632;51.276;7.116;2023-05-07T08:36:05;3.35;;;1.20;;
20945;SDS011;10632;51.276;7.116;2023-05-07T08:38:33;1.77;;;1.00;;
20945;SDS011;10632;51.276;7.116;2023-05-07T08:41:00;2.63;;;1.10;;
20945;SDS011;10632;51.276;7.116;2023-05-07T08:43:27;2.40;;;1.10;;
20945;SDS011;10632;51.276;7.116;2023-05-07T08:45:54;3.10;;;1.10;;
20945;SDS011;10632;51.276;7.116;2023-05-07T08:48:24;2.20;;;1.15;;
20945;SDS011;10632;51.276;7.116;2023-05-07T08:50:54;1.63;;;0.93;;
20945;SDS011;10632;51.276;7.116;2023-05-07T08:53:21;1.92;;;1.00;;
20945;SDS011;10632;51.276;7.116;2023-05-07T08:55:48;2.65;;;1.20;;
20945;SDS011;10632;51.276;7.116;2023-05-07T08:58:16;3.58;;;1.02;;
20945;SDS011;10632;51.276;7.116;2023-05-07T09:00:43;2.50;;;0.95;;
20945;SDS011;10632;51.276;7.116;2023-05-07T09:03:10;4.03;;;0.98;;
20945;SDS011;10632;51.276;7.116;2023-05-07T09:05:37;1.30;;;0.80;;
20945;SDS011;10632;51.276;7.116;2023-05-07T09:08:06;3.25;;;1.60;;
20945;SDS011;10632;51.276;7.116;2023-05-07T09:10:35;4.50;;;2.10;;
20945;SDS011;10632;51.276;7.116;2023-05-07T09:13:02;4.95;;;1.70;;
20945;SDS011;10632;51.276;7.116;2023-05-07T09:15:30;13.63;;;4.18;;
20945;SDS011;10632;51.276;7.116;2023-05-07T09:17:59;28.80;;;7.22;;
20945;SDS011;10632;51.276;7.116;2023-05-07T09:20:27;13.82;;;2.92;;
20945;SDS011;10632;51.276;7.116;2023-05-07T09:22:56;5.55;;;1.50;;
20945;SDS011;10632;51.276;7.116;2023-05-07T09:25:31;4.10;;;1.38;;
20945;SDS011;10632;51.276;7.116;2023-05-07T09:28:02;7.00;;;1.90;;
20945;SDS011;10632;51.276;7.116;2023-05-07T09:30:31;8.80;;;2.50;;
20945;SDS011;10632;51.276;7.116;2023-05-07T09:32:59;7.25;;;2.30;;
20945;SDS011;10632;51.276;7.116;2023-05-07T09:35:27;12.32;;;3.75;;
20945;SDS011;10632;51.276;7.116;2023-05-07T09:37:55;5.15;;;1.67;;
20945;SDS011;10632;51.276;7.116;2023-05-07T09:40:25;2.00;;;1.13;;
20945;SDS011;10632;51.276;7.116;2023-05-07T09:42:55;5.35;;;1.40;;
20945;SDS011;10632;51.276;7.116;2023-05-07T09:45:24;2.30;;;0.90;;
20945;SDS011;10632;51.276;7.116;2023-05-07T09:47:56;1.38;;;0.80;;
20945;SDS011;10632;51.276;7.116;2023-05-07T09:50:25;1.67;;;0.90;;
20945;SDS011;10632;51.276;7.116;2023-05-07T09:52:54;1.42;;;0.70;;
20945;SDS011;10632;51.276;7.116;2023-05-07T09:55:21;1.98;;;1.00;;
20945;SDS011;10632;51.276;7.116;2023-05-07T09:57:49;1.60;;;0.98;;
20945;SDS011;10632;51.276;7.116;2023-05-07T10:00:19;2.10;;;0.80;;
20945;SDS011;10632;51.276;7.116;2023-05-07T10:02:47;5.57;;;1.00;;
20945;SDS011;10632;51.276;7.116;2023-05-07T10:05:17;2.15;;;0.90;;
20945;SDS011;10632;51.276;7.116;2023-05-07T10:07:45;14.00;;;1.55;;
20945;SDS011;10632;51.276;7.116;2023-05-07T10:10:12;6.78;;;1.50;;
20945;SDS011;10632;51.276;7.116;2023-05-07T10:12:41;7.93;;;1.20;;
20945;SDS011;10632;51.276;7.116;2023-05-07T10:15:08;4.45;;;1.10;;
20945;SDS011;10632;51.276;7.116;2023-05-07T10:17:37;3.60;;;1.17;;
20945;SDS011;10632;51.276;7.116;2023-05-07T10:20:06;2.05;;;1.10;;
20945;SDS011;10632;51.276;7.116;2023-05-07T10:22:37;3.72;;;0.90;;
20945;SDS011;10632;51.276;7.116;2023-05-07T10:25:06;3.25;;;0.90;;
20945;SDS011;10632;51.276;7.116;2023-05-07T10:27:40;2.38;;;1.00;;
20945;SDS011;10632;51.276;7.116;2023-05-07T10:30:12;3.22;;;0.93;;
20945;SDS011;10632;51.276;7.116;2023-05-07T10:32:48;2.33;;;1.00;;
20945;SDS011;10632;51.276;7.116;2023-05-07T10:35:17;2.35;;;1.10;;
20945;SDS011;10632;51.276;7.116;2023-05-07T10:37:46;1.90;;;1.05;;
20945;SDS011;10632;51.276;7.116;2023-05-07T10:40:14;3.72;;;1.17;;
20945;SDS011;10632;51.276;7.116;2023-05-07T10:45:25;2.28;;;0.95;;
20945;SDS011;10632;51.276;7.116;2023-05-07T10:48:06;1.23;;;0.68;;
20945;SDS011;10632;51.276;7.116;2023-05-07T10:50:37;1.60;;;0.80;;
20945;SDS011;10632;51.276;7.116;2023-05-07T10:53:20;1.63;;;0.82;;
20945;SDS011;10632;51.276;7.116;2023-05-07T10:58:55;2.80;;;1.10;;
20945;SDS011;10632;51.276;7.116;2023-05-07T11:01:57;2.10;;;1.05;;
20945;SDS011;10632;51.276;7.116;2023-05-07T11:04:26;2.00;;;1.00;;
20945;SDS011;10632;51.276;7.116;2023-05-07T11:09:54;2.47;;;1.08;;
20945;SDS011;10632;51.276;7.116;2023-05-07T11:18:09;1.67;;;1.00;;
20945;SDS011;10632;51.276;7.116;2023-05-07T11:26:27;1.80;;;0.90;;
20945;SDS011;10632;51.276;7.116;2023-05-07T11:28:56;2.53;;;1.10;;
20945;SDS011;10632;51.276;7.116;2023-05-07T11:31:25;1.52;;;0.98;;
20945;SDS011;10632;51.276;7.116;2023-05-07T11:33:53;1.95;;;1.10;;
20945;SDS011;10632;51.276;7.116;2023-05-07T11:36:25;1.83;;;1.13;;
20945;SDS011;10632;51.276;7.116;2023-05-07T11:38:59;2.13;;;1.17;;
20945;SDS011;10632;51.276;7.116;2023-05-07T11:41:33;1.77;;;0.95;;
20945;SDS011;10632;51.276;7.116;2023-05-07T11:44:01;1.75;;;0.93;;
20945;SDS011;10632;51.276;7.116;2023-05-07T11:46:28;2.05;;;1.08;;
20945;SDS011;10632;51.276;7.116;2023-05-07T11:48:55;2.05;;;1.00;;
20945;SDS011;10632;51.276;7.116;2023-05-07T11:51:23;2.53;;;1.00;;
20945;SDS011;10632;51.276;7.116;2023-05-07T11:53:53;5.70;;;1.10;;
20945;SDS011;10632;51.276;7.116;2023-05-07T11:56:20;1.67;;;0.82;;
20945;SDS011;10632;51.276;7.116;2023-05-07T11:59:01;3.70;;;1.60;;
20945;SDS011;10632;51.276;7.116;2023-05-07T12:01:28;3.42;;;0.90;;
20945;SDS011;10632;51.276;7.116;2023-05-07T12:03:58;2.50;;;1.10;;
20945;SDS011;10632;51.276;7.116;2023-05-07T12:06:30;1.73;;;0.80;;
20945;SDS011;10632;51.276;7.116;2023-05-07T12:08:58;2.42;;;1.30;;
20945;SDS011;10632;51.276;7.116;2023-05-07T12:11:25;1.33;;;0.90;;
20945;SDS011;10632;51.276;7.116;2023-05-07T12:13:53;2.40;;;1.15;;
20945;SDS011;10632;51.276;7.116;2023-05-07T12:16:23;1.55;;;0.88;;
20945;SDS011;10632;51.276;7.116;2023-05-07T12:18:50;5.00;;;1.10;;
20945;SDS011;10632;51.276;7.116;2023-05-07T12:21:20;1.90;;;1.00;;
20945;SDS011;10632;51.276;7.116;2023-05-07T12:23:47;2.08;;;1.13;;
20945;SDS011;10632;51.276;7.116;2023-05-07T12:26:16;1.70;;;0.85;;
20945;SDS011;10632;51.276;7.116;2023-05-07T12:28:45;3.42;;;0.98;;
20945;SDS011;10632;51.276;7.116;2023-05-07T12:31:13;1.60;;;1.00;;
20945;SDS011;10632;51.276;7.116;2023-05-07T12:33:40;3.38;;;1.15;;
20945;SDS011;10632;51.276;7.116;2023-05-07T12:36:08;1.73;;;0.90;;
20945;SDS011;10632;51.276;7.116;2023-05-07T12:38:35;3.95;;;1.30;;
20945;SDS011;10632;51.276;7.116;2023-05-07T12:41:04;2.13;;;1.10;;
20945;SDS011;10632;51.276;7.116;2023-05-07T12:43:34;5.80;;;1.52;;
20945;SDS011;10632;51.276;7.116;2023-05-07T12:46:01;2.72;;;1.40;;
20945;SDS011;10632;51.276;7.116;2023-05-07T12:48:30;3.75;;;1.90;;
20945;SDS011;10632;51.276;7.116;2023-05-07T12:50:58;3.67;;;1.60;;
20945;SDS011;10632;51.276;7.116;2023-05-07T12:53:29;4.20;;;2.17;;
20945;SDS011;10632;51.276;7.116;2023-05-07T12:55:57;6.10;;;2.38;;
20945;SDS011;10632;51.276;7.116;2023-05-07T12:58:27;3.67;;;1.90;;
20945;SDS011;10632;51.276;7.116;2023-05-07T13:00:58;5.93;;;2.53;;
20945;SDS011;10632;51.276;7.116;2023-05-07T13:03:27;4.45;;;2.20;;
20945;SDS011;10632;51.276;7.116;2023-05-07T13:05:55;5.13;;;2.28;;
20945;SDS011;10632;51.276;7.116;2023-05-07T13:08:24;4.30;;;2.00;;
20945;SDS011;10632;51.276;7.116;2023-05-07T13:10:53;4.40;;;2.30;;
20945;SDS011;10632;51.276;7.116;2023-05-07T13:13:20;4.60;;;2.20;;
20945;SDS011;10632;51.276;7.116;2023-05-07T13:15:47;4.65;;;2.10;;
20945;SDS011;10632;51.276;7.116;2023-05-07T13:18:17;5.15;;;2.55;;
20945;SDS011;10632;51.276;7.116;2023-05-07T13:20:44;4.28;;;2.28;;
20945;SDS011;10632;51.276;7.116;2023-05-07T13:23:11;5.50;;;2.70;;
20945;SDS011;10632;51.276;7.116;2023-05-07T13:25:37;5.32;;;2.47;;
20945;SDS011;10632;51.276;7.116;2023-05-07T13:28:05;4.68;;;2.40;;
20945;SDS011;10632;51.276;7.116;2023-05-07T13:30:32;6.20;;;2.55;;
20945;SDS011;10632;51.276;7.116;2023-05-07T13:32:59;4.25;;;2.33;;
20945;SDS011;10632;51.276;7.116;2023-05-07T13:35:27;2.80;;;1.67;;
20945;SDS011;10632;51.276;7.116;2023-05-07T13:37:54;4.18;;;1.80;;
20945;SDS011;10632;51.276;7.116;2023-05-07T13:40:23;3.33;;;1.70;;
20945;SDS011;10632;51.276;7.116;2023-05-07T13:42:50;5.28;;;1.75;;
20945;SDS011;10632;51.276;7.116;2023-05-07T13:45:17;4.00;;;2.22;;
20945;SDS011;10632;51.276;7.116;2023-05-07T13:47:45;8.73;;;2.20;;
20945;SDS011;10632;51.276;7.116;2023-05-07T13:50:14;4.60;;;2.38;;
20945;SDS011;10632;51.276;7.116;2023-05-07T13:52:43;3.03;;;1.90;;
20945;SDS011;10632;51.276;7.116;2023-05-07T13:55:15;4.68;;;2.10;;
20945;SDS011;10632;51.276;7.116;2023-05-07T13:57:43;4.72;;;2.10;;
20945;SDS011;10632;51.276;7.116;2023-05-07T14:00:10;3.65;;;1.95;;
20945;SDS011;10632;51.276;7.116;2023-05-07T14:02:38;4.25;;;1.90;;
20945;SDS011;10632;51.276;7.116;2023-05-07T14:05:05;4.40;;;1.75;;
20945;SDS011;10632;51.276;7.116;2023-05-07T14:07:34;3.90;;;1.70;;
20945;SDS011;10632;51.276;7.116;2023-05-07T14:10:02;2.72;;;1.50;;
20945;SDS011;10632;51.276;7.116;2023-05-07T14:12:29;2.83;;;1.65;;
20945;SDS011;10632;51.276;7.116;2023-05-07T14:14:58;5.18;;;2.08;;
20945;SDS011;10632;51.276;7.116;2023-05-07T14:17:26;5.18;;;2.13;;
20945;SDS011;10632;51.276;7.116;2023-05-07T14:19:53;2.63;;;1.52;;
20945;SDS011;10632;51.276;7.116;2023-05-07T14:22:20;4.50;;;2.05;;
20945;SDS011;10632;51.276;7.116;2023-05-07T14:24:48;5.05;;;2.50;;
20945;SDS011;10632;51.276;7.116;2023-05-07T14:27:17;6.55;;;2.70;;
20945;SDS011;10632;51.276;7.116;2023-05-07T14:29:44;5.20;;;2.38;;
20945;SDS011;10632;51.276;7.116;2023-05-07T14:32:15;7.35;;;2.72;;
20945;SDS011;10632;51.276;7.116;2023-05-07T14:34:42;6.07;;;2.67;;
20945;SDS011;10632;51.276;7.116;2023-05-07T14:37:10;6.05;;;2.90;;
20945;SDS011;10632;51.276;7.116;2023-05-07T14:39:37;7.22;;;2.97;;
20945;SDS011;10632;51.276;7.116;2023-05-07T14:42:04;13.40;;;5.20;;
20945;SDS011;10632;51.276;7.116;2023-05-07T14:44:34;9.10;;;4.15;;
20945;SDS011;10632;51.276;7.116;2023-05-07T14:47:01;9.75;;;4.28;;
20945;SDS011;10632;51.276;7.116;2023-05-07T14:49:28;9.55;;;4.32;;
20945;SDS011;10632;51.276;7.116;2023-05-07T14:51:56;8.30;;;3.88;;
20945;SDS011;10632;51.276;7.116;2023-05-07T14:54:24;8.02;;;3.50;;
20945;SDS011;10632;51.276;7.116;2023-05-07T14:56:51;9.10;;;3.85;;
20945;SDS011;10632;51.276;7.116;2023-05-07T14:59:24;9.35;;;3.95;;
20945;SDS011;10632;51.276;7.116;2023-05-07T15:01:52;6.43;;;3.00;;
20945;SDS011;10632;51.276;7.116;2023-05-07T15:04:20;8.05;;;3.72;;
20945;SDS011;10632;51.276;7.116;2023-05-07T15:06:47;8.57;;;3.92;;
20945;SDS011;10632;51.276;7.116;2023-05-07T15:09:14;12.52;;;4.97;;
20945;SDS011;10632;51.276;7.116;2023-05-07T15:11:44;7.35;;;3.53;;
20945;SDS011;10632;51.276;7.116;2023-05-07T15:14:11;7.22;;;3.63;;
20945;SDS011;10632;51.276;7.116;2023-05-07T15:16:38;8.52;;;4.05;;
20945;SDS011;10632;51.276;7.116;2023-05-07T15:19:06;8.10;;;3.42;;